UDYZUGSB

Guest
Details From UDYZ - Zvartnots
To UGSB - Batumi
Flight Number -
Tags Generated
Created
Modified
Stats Distance 154 nm / 285 km
Max Altitude 0 ft / 0 m
Waypoints 2
Social Downloads 0
Likes 0
Share VATSIM

Download

Looking for another format? Having issues loading an existing format? Contact us
Advertisement - Login to hide

Notes

Generated

Route

UDYZ UGSB

ID Type Via Altitude Latitude Longitude Leg Dist Tot Dist Heading (true) Name
O UDYZ APT - 0 ft / 0 m 40.14715˚ 44.37329˚ - 0 nm - -
O UGSB APT - 0 ft / 0 m 41.61622˚ 41.59016˚ 154 nm 154 nm 306° / 304° -

Altitude Profile

Advertisement - Login to hide

UDYZ

Details ICAO UDYZ (EVN)
Name ZVARTNOTS
Region Armenia
Timezone Asia/Yerevan (UTC+4.0)
Stats Elevation 2,838 ft / 865 m (AMSL)
Location 40.147271° 44.395880°
Runways 1
Magnetic Variation 6.200° E

METAR

UDYZ 110230Z 00000KT 2000 R09/P2000N BR NSC M06/M08 Q1025 R09/000070 NOSIG

Decode

TAF

TAF AMD UDYZ 102345Z 1100/1124 VRB04KT 1000 BR NSC TEMPO 1100/1106 0200 FZFG VV001 BECMG 1109/1110 6000 NSW

Decode

Departure Runways

ID Width Length Bearing (true) Bearing (mag) Surface Threshold Offset Overrun Length
09 184 ft / 56 m 12,601 ft / 3,841 m 89.59° 83.39° Asphalt 0 ft / 0 m 0 ft / 0 m
27 184 ft / 56 m 12,601 ft / 3,841 m 269.62° 263.42° Asphalt 0 ft / 0 m 0 ft / 0 m

UGSB

Details ICAO UGSB (BUS)
Name BATUMI
Region Georgia
Timezone Asia/Tbilisi (UTC+4.0)
Stats Elevation 105 ft / 32 m (AMSL)
Location 41.609660° 41.600318°
Runways 1
Magnetic Variation 6.546° E

METAR

UGSB 110230Z AUTO 14010KT 110V180 9999 -RA FEW053 SCT082 OVC095 11/M00 Q1025 R13/70D NOSIG

Decode

TAF

TAF UGSB 102300Z 1100/1124 13023KT 9999 SCT020CB BKN035 TX14/1111Z TN09/1102Z BECMG 1101/1102 23014KT TEMPO 1101/1112 24024KT 3000 TSRA SCT010 BKN020CB

Decode

Destination Runways

ID Width Length Bearing (true) Bearing (mag) Surface Threshold Offset Overrun Length
13 150 ft / 46 m 7,321 ft / 2,232 m 130.81° 124.26° Asphalt 0 ft / 0 m 690 ft / 210 m
31 150 ft / 46 m 7,321 ft / 2,232 m 310.82° 304.27° Asphalt 0 ft / 0 m 0 ft / 0 m

Approach Navaids

Runway Type Ident Frequency Range Bearing (true) Bearing (mag) Slope Elevation
13 Localiser ILU 110.30 MHz 18 nm / 33 km 130.94° 124.39° - 121 ft / 37 m (AMSL)
13 Glidescope ILU 110.30 MHz 10 nm / 19 km 130.82° 124.27° 2.50° 127 ft / 39 m (AMSL)

Popular Alternatives